Santa Nella, California
Current Conditions -  °F | °C
As of 5:08 AM on Friday 28 Nov 2014 (Local Time) from KMCE Reporting Station
Haze Haze  
Wind Chill: 42°   Ceiling: Unl
Heat Index: 44°   Visibility: 3mi
Dew Point: 41°   Wind: 5mph
Humidity: 89%   Direction: 100°E
Pressure: 30"   Gusts: NA
Location:  37.1919°N, 120.985°W
Report Text: KMCE 281308Z AUTO 10004KT 3SM BR CLR 07/05 A3000 RMK AO2 T00670050
Loading
Personal Weather Stations






























Interactive Weather Map New forecast layout! Learn more

10-Day Weather Forecast

Advertisements
Track Severe Weather on mobile